createdAt,value
2022-10-23T00:01:56.361Z,2.90
2022-10-23T00:04:27.711Z,2.90
2022-10-23T00:06:58.982Z,2.90
2022-10-23T00:09:27.322Z,2.90
2022-10-23T00:11:56.082Z,2.90
2022-10-23T00:14:25.896Z,2.90
2022-10-23T00:16:53.709Z,2.90
2022-10-23T00:19:22.588Z,2.90
2022-10-23T00:21:50.405Z,2.90
2022-10-23T00:24:23.362Z,2.90
2022-10-23T00:26:51.403Z,2.90
2022-10-23T00:29:22.005Z,3.00
2022-10-23T00:31:51.408Z,3.00
2022-10-23T00:34:19.755Z,3.00
2022-10-23T00:36:48.893Z,2.90
2022-10-23T00:39:18.179Z,2.82
2022-10-23T00:41:50.942Z,2.80
2022-10-23T00:44:18.873Z,2.78
2022-10-23T00:46:48.575Z,2.80
2022-10-23T00:49:16.744Z,2.90
2022-10-23T00:51:51.933Z,2.90
2022-10-23T00:54:25.874Z,2.90
2022-10-23T00:57:01.556Z,2.90
2022-10-23T00:59:34.283Z,3.00
2022-10-23T01:02:02.641Z,3.00
2022-10-23T01:04:34.888Z,3.10
2022-10-23T01:07:14.217Z,3.10
2022-10-23T01:09:50.325Z,3.00
2022-10-23T01:12:33.595Z,3.00
2022-10-23T01:15:20.409Z,3.00
2022-10-23T01:18:31.718Z,3.00
2022-10-23T01:21:16.035Z,3.20
2022-10-23T01:24:21.414Z,3.20
2022-10-23T01:27:04.729Z,3.30
2022-10-23T01:29:51.027Z,3.30
2022-10-23T01:32:58.457Z,3.30
2022-10-23T01:35:35.949Z,3.30
2022-10-23T01:38:52.946Z,3.30
2022-10-23T01:41:31.725Z,3.38
2022-10-23T01:44:18.066Z,3.40
2022-10-23T01:46:50.281Z,3.40
2022-10-23T01:49:21.905Z,3.40
2022-10-23T01:52:00.392Z,3.30
2022-10-23T01:54:38.809Z,3.30
2022-10-23T01:57:14.859Z,3.30
2022-10-23T01:59:55.072Z,3.30
2022-10-23T02:05:26.020Z,3.20
2022-10-23T02:07:55.490Z,3.30
2022-10-23T02:10:40.642Z,3.30
2022-10-23T02:13:36.765Z,3.38
2022-10-23T02:16:20.488Z,3.32
2022-10-23T02:19:00.313Z,3.40
2022-10-23T02:21:40.132Z,3.40
2022-10-23T02:24:20.377Z,3.40
2022-10-23T02:27:02.620Z,3.48
2022-10-23T02:29:47.157Z,3.50
2022-10-23T02:32:18.132Z,3.50
2022-10-23T02:34:46.049Z,3.50
2022-10-23T02:37:18.248Z,3.40
2022-10-23T02:39:48.421Z,3.44
2022-10-23T02:42:28.916Z,3.50
2022-10-23T02:45:31.654Z,3.46
2022-10-23T02:48:08.706Z,3.50
2022-10-23T02:51:37.632Z,3.50
2022-10-23T02:54:14.538Z,3.60
2022-10-23T02:56:58.147Z,3.60
2022-10-23T02:59:37.311Z,3.60
2022-10-23T03:02:56.030Z,3.60
2022-10-23T03:05:38.518Z,3.50
2022-10-23T03:08:10.549Z,3.50
2022-10-23T03:10:39.969Z,3.50
2022-10-23T03:13:14.924Z,3.50
2022-10-23T03:15:44.963Z,3.50
2022-10-23T03:18:12.852Z,3.50
2022-10-23T03:20:44.072Z,3.50
2022-10-23T03:23:14.178Z,3.50
2022-10-23T03:25:42.687Z,3.60
2022-10-23T03:28:11.683Z,3.60
2022-10-23T03:30:40.280Z,3.50
2022-10-23T03:33:09.836Z,3.50
2022-10-23T03:35:38.323Z,3.50
2022-10-23T03:38:07.207Z,3.50
2022-10-23T03:40:35.488Z,3.60
2022-10-23T03:43:05.323Z,3.70
2022-10-23T03:45:32.978Z,3.70
2022-10-23T03:48:01.571Z,3.70
2022-10-23T03:50:29.706Z,3.70
2022-10-23T03:52:57.531Z,3.70
2022-10-23T03:55:28.929Z,3.76
2022-10-23T03:57:56.834Z,3.70
2022-10-23T04:00:24.809Z,3.70
2022-10-23T04:02:53.017Z,3.70
2022-10-23T04:05:21.353Z,3.70
2022-10-23T04:07:49.318Z,3.70
2022-10-23T04:10:17.677Z,3.80
2022-10-23T04:12:47.242Z,3.78
2022-10-23T04:15:22.505Z,3.70
2022-10-23T04:17:51.661Z,3.70
2022-10-23T04:20:19.405Z,3.70
2022-10-23T04:22:49.416Z,3.70
2022-10-23T04:25:20.814Z,3.70
2022-10-23T04:27:54.874Z,3.70
2022-10-23T04:30:25.796Z,3.70
2022-10-23T04:32:55.081Z,3.80
2022-10-23T04:35:23.559Z,3.80
2022-10-23T04:37:53.575Z,3.80
2022-10-23T04:40:22.348Z,3.70
2022-10-23T04:42:51.730Z,3.70
2022-10-23T04:45:21.329Z,3.70
2022-10-23T04:47:53.417Z,3.80
2022-10-23T04:50:25.206Z,3.90
2022-10-23T04:52:57.581Z,3.90
2022-10-23T04:55:26.533Z,4.00
2022-10-23T04:57:54.789Z,4.00
2022-10-23T05:00:22.803Z,3.90
2022-10-23T05:02:51.922Z,3.90
2022-10-23T05:05:23.404Z,3.90
2022-10-23T05:07:51.121Z,4.00
2022-10-23T05:10:19.451Z,4.00
2022-10-23T05:12:50.333Z,4.00
2022-10-23T05:15:21.388Z,4.04
2022-10-23T05:17:58.026Z,4.10
2022-10-23T05:20:44.720Z,4.10
2022-10-23T05:23:17.953Z,4.08
2022-10-23T05:25:47.771Z,4.10
2022-10-23T05:28:16.210Z,4.10
2022-10-23T05:30:44.713Z,4.20
2022-10-23T05:33:14.364Z,4.30
2022-10-23T05:35:45.371Z,4.30
2022-10-23T05:38:22.021Z,4.30
2022-10-23T05:40:54.018Z,4.30
2022-10-23T05:43:22.136Z,4.34
2022-10-23T05:45:49.769Z,4.30
2022-10-23T05:48:30.005Z,4.30
2022-10-23T05:51:09.470Z,4.30
2022-10-23T05:53:40.309Z,4.30
2022-10-23T05:56:10.654Z,4.30
2022-10-23T05:58:44.293Z,4.20
2022-10-23T06:01:15.261Z,4.18
2022-10-23T06:03:45.007Z,4.10
2022-10-23T06:06:15.415Z,4.10
2022-10-23T06:08:53.698Z,4.10
2022-10-23T06:11:21.852Z,4.16
2022-10-23T06:13:51.446Z,4.20
2022-10-23T06:16:27.662Z,4.20
2022-10-23T06:19:12.609Z,4.20
2022-10-23T06:21:42.779Z,4.26
2022-10-23T06:24:12.434Z,4.30
2022-10-23T06:26:43.485Z,4.30
2022-10-23T06:29:11.686Z,4.40
2022-10-23T06:31:44.113Z,4.40
2022-10-23T06:34:15.679Z,4.30
2022-10-23T06:36:43.800Z,4.30
2022-10-23T06:39:15.373Z,4.30
2022-10-23T06:41:44.670Z,4.30
2022-10-23T06:44:13.216Z,4.30
2022-10-23T06:46:42.394Z,4.30
2022-10-23T06:49:10.582Z,4.30
2022-10-23T06:51:42.822Z,4.30
2022-10-23T06:54:13.123Z,4.30
2022-10-23T06:56:41.613Z,4.30
2022-10-23T06:59:09.635Z,4.30
2022-10-23T07:01:38.433Z,4.30
2022-10-23T07:04:08.062Z,4.30
2022-10-23T07:06:36.654Z,4.30
2022-10-23T07:09:05.489Z,4.30
2022-10-23T07:11:35.090Z,4.30
2022-10-23T07:14:06.162Z,4.30
2022-10-23T07:16:34.469Z,4.38
2022-10-23T07:19:02.310Z,4.36
2022-10-23T07:21:35.734Z,4.38
2022-10-23T07:24:07.034Z,4.40
2022-10-23T07:26:36.867Z,4.48
2022-10-23T07:29:07.922Z,4.50
2022-10-23T07:31:36.109Z,4.40
2022-10-23T07:34:04.500Z,4.40
2022-10-23T07:36:35.772Z,4.48
2022-10-23T07:39:04.223Z,4.50
2022-10-23T07:41:32.222Z,4.54
2022-10-23T07:44:00.139Z,4.60
2022-10-23T07:46:29.058Z,4.70
2022-10-23T07:48:57.942Z,4.70
2022-10-23T07:51:28.476Z,4.70
2022-10-23T07:53:57.609Z,4.70
2022-10-23T07:56:31.605Z,4.70
2022-10-23T07:59:02.749Z,4.70
2022-10-23T08:01:38.762Z,4.70
2022-10-23T08:04:07.007Z,4.80
2022-10-23T08:06:36.593Z,4.74
2022-10-23T08:09:07.002Z,4.70
2022-10-23T08:11:36.003Z,4.70
2022-10-23T08:14:07.928Z,4.70
2022-10-23T08:16:40.929Z,4.70
2022-10-23T08:19:09.923Z,4.80
2022-10-23T08:21:39.655Z,4.80
2022-10-23T08:24:13.817Z,4.80
2022-10-23T08:26:42.152Z,4.90
2022-10-23T08:29:12.924Z,4.90
2022-10-23T08:31:43.392Z,4.90
2022-10-23T08:34:11.249Z,4.90
2022-10-23T08:36:43.967Z,4.90
2022-10-23T08:39:15.168Z,4.90
2022-10-23T08:41:52.549Z,4.90
2022-10-23T08:44:46.872Z,4.90
2022-10-23T08:47:28.744Z,4.90
2022-10-23T08:50:06.781Z,4.90
2022-10-23T08:52:49.625Z,4.90
2022-10-23T08:55:33.649Z,4.92
2022-10-23T08:58:11.609Z,4.98
2022-10-23T09:00:42.593Z,4.90
2022-10-23T09:03:13.416Z,4.90
2022-10-23T09:06:13.644Z,4.90
2022-10-23T09:09:22.965Z,4.90
2022-10-23T09:12:15.493Z,4.90
2022-10-23T09:15:23.902Z,4.90
2022-10-23T09:18:00.683Z,5.00
2022-10-23T09:20:34.607Z,5.00
2022-10-23T09:23:23.305Z,5.06
2022-10-23T09:25:58.177Z,5.10
2022-10-23T09:29:08.606Z,5.06
2022-10-23T09:31:51.363Z,5.10
2022-10-23T09:34:27.255Z,5.10
2022-10-23T09:37:31.265Z,5.20
2022-10-23T09:40:19.234Z,5.30
2022-10-23T09:43:04.069Z,5.30
2022-10-23T09:45:36.054Z,5.26
2022-10-23T09:48:15.246Z,5.20
2022-10-23T09:50:56.212Z,5.20
2022-10-23T09:53:36.935Z,5.30
2022-10-23T09:56:25.575Z,5.38
2022-10-23T09:59:06.802Z,5.30
2022-10-23T10:01:52.350Z,5.30
2022-10-23T10:04:39.756Z,5.24
2022-10-23T10:07:31.245Z,5.30
2022-10-23T10:10:13.864Z,5.30
2022-10-23T10:12:54.908Z,5.28
2022-10-23T10:15:47.117Z,5.20
2022-10-23T10:18:40.041Z,5.20
2022-10-23T10:21:30.232Z,5.20
2022-10-23T10:24:13.883Z,5.20
2022-10-23T10:26:56.839Z,5.20
2022-10-23T10:29:47.098Z,5.20
2022-10-23T10:32:28.524Z,5.30
2022-10-23T10:35:43.217Z,5.30
2022-10-23T10:38:34.042Z,5.30
2022-10-23T10:41:26.295Z,5.30
2022-10-23T10:44:18.832Z,5.34
2022-10-23T10:47:18.607Z,5.40
2022-10-23T10:50:12.950Z,5.40
2022-10-23T10:53:23.714Z,5.40
2022-10-23T10:55:58.276Z,5.50
2022-10-23T10:58:52.935Z,5.62
2022-10-23T11:01:49.833Z,5.70
2022-10-23T11:04:56.086Z,5.80
2022-10-23T11:07:38.529Z,5.80
2022-10-23T11:10:26.472Z,5.80
2022-10-23T11:12:56.001Z,5.80
2022-10-23T11:15:39.350Z,5.80
2022-10-23T11:18:23.389Z,5.88
2022-10-23T11:21:39.895Z,5.90
2022-10-23T11:24:23.963Z,5.88
2022-10-23T11:27:50.949Z,5.80
2022-10-23T11:31:00.568Z,5.70
2022-10-23T11:33:59.000Z,5.70
2022-10-23T11:36:56.529Z,5.68
2022-10-23T11:39:41.134Z,5.70
2022-10-23T11:42:08.853Z,5.80
2022-10-23T11:44:51.481Z,5.80
2022-10-23T11:47:39.980Z,5.80
2022-10-23T11:50:08.399Z,5.90
2022-10-23T11:53:27.334Z,5.92
2022-10-23T11:56:01.177Z,6.00
2022-10-23T11:58:52.582Z,6.02
2022-10-23T12:01:43.928Z,6.10
2022-10-23T12:04:35.090Z,6.10
2022-10-23T12:07:18.039Z,6.20
2022-10-23T12:09:55.960Z,6.20
2022-10-23T12:12:34.268Z,6.22
2022-10-23T12:15:21.551Z,6.28
2022-10-23T12:17:54.186Z,6.20
2022-10-23T12:20:51.853Z,6.10
2022-10-23T12:24:13.406Z,6.00
2022-10-23T12:27:16.464Z,6.00
2022-10-23T12:30:22.816Z,6.10
2022-10-23T12:33:22.999Z,6.10
2022-10-23T12:36:22.834Z,6.10
2022-10-23T12:38:51.269Z,6.18
2022-10-23T12:41:36.831Z,6.20
2022-10-23T12:44:12.071Z,6.28
2022-10-23T12:46:47.094Z,6.30
2022-10-23T12:49:24.097Z,6.40
2022-10-23T12:52:04.833Z,6.40
2022-10-23T12:54:41.520Z,6.40
2022-10-23T12:57:33.732Z,6.40
2022-10-23T13:00:13.069Z,6.32
2022-10-23T13:02:41.092Z,6.30
2022-10-23T13:05:19.378Z,6.30
2022-10-23T13:07:49.290Z,6.30
2022-10-23T13:10:24.984Z,6.38
2022-10-23T13:13:02.706Z,6.40
2022-10-23T13:15:50.657Z,6.40
2022-10-23T13:18:22.950Z,6.46
2022-10-23T13:23:36.843Z,6.50
2022-10-23T13:26:36.599Z,6.50
2022-10-23T13:29:29.215Z,6.50
2022-10-23T13:32:11.590Z,6.50
2022-10-23T13:34:40.889Z,6.50
2022-10-23T13:37:33.631Z,6.50
2022-10-23T13:40:30.557Z,6.60
2022-10-23T13:42:59.242Z,6.60
2022-10-23T13:45:31.045Z,6.70
2022-10-23T13:48:16.274Z,6.70
2022-10-23T13:50:44.098Z,6.70
2022-10-23T13:53:13.468Z,6.70
2022-10-23T13:55:47.940Z,6.60
2022-10-23T13:58:15.984Z,6.60
2022-10-23T14:00:49.659Z,6.60
2022-10-23T14:03:19.663Z,6.70
2022-10-23T14:05:48.154Z,6.70
2022-10-23T14:10:57.498Z,6.80
2022-10-23T14:13:27.059Z,6.80
2022-10-23T14:15:58.947Z,6.72
2022-10-23T14:18:27.821Z,6.70
2022-10-23T14:20:59.377Z,6.70
2022-10-23T14:23:28.876Z,6.72
2022-10-23T14:26:12.130Z,6.72
2022-10-23T14:28:40.399Z,6.78
2022-10-23T14:31:18.241Z,6.70
2022-10-23T14:33:47.005Z,6.70
2022-10-23T14:36:15.650Z,6.70
2022-10-23T14:38:44.540Z,6.70
2022-10-23T14:41:18.192Z,6.76
2022-10-23T14:43:46.861Z,6.80
2022-10-23T14:46:21.613Z,6.80
2022-10-23T14:48:56.504Z,6.72
2022-10-23T14:51:31.593Z,6.80
2022-10-23T14:54:04.413Z,6.80
2022-10-23T14:56:42.870Z,6.80
2022-10-23T14:59:12.008Z,6.90
2022-10-23T15:01:48.258Z,6.90
2022-10-23T15:04:16.674Z,6.90
2022-10-23T15:06:47.661Z,6.90
2022-10-23T15:09:16.729Z,6.92
2022-10-23T15:11:46.481Z,6.90
2022-10-23T15:14:16.198Z,6.90
2022-10-23T15:16:44.335Z,6.90
2022-10-23T15:19:18.535Z,6.90
2022-10-23T15:21:49.836Z,6.90
2022-10-23T15:24:29.819Z,6.90
2022-10-23T15:27:00.288Z,6.90
2022-10-23T15:29:29.606Z,6.90
2022-10-23T15:32:02.373Z,7.00
2022-10-23T15:34:30.725Z,7.00
2022-10-23T15:37:03.670Z,7.00
2022-10-23T15:39:35.837Z,7.00
2022-10-23T15:42:08.251Z,7.00
2022-10-23T15:44:43.141Z,7.00
2022-10-23T15:47:21.561Z,7.00
2022-10-23T15:52:31.485Z,7.10
2022-10-23T15:54:59.621Z,7.10
2022-10-23T15:57:32.835Z,7.10
2022-10-23T16:00:05.778Z,7.02
2022-10-23T16:02:35.564Z,7.00
2022-10-23T16:05:07.525Z,7.00
2022-10-23T16:07:37.051Z,7.10
2022-10-23T16:10:07.394Z,7.00
2022-10-23T16:12:38.828Z,7.00
2022-10-23T16:15:16.927Z,6.90
2022-10-23T16:17:45.168Z,6.90
2022-10-23T16:20:14.329Z,6.80
2022-10-23T16:22:50.264Z,6.80
2022-10-23T16:25:20.327Z,6.80
2022-10-23T16:27:49.044Z,6.80
2022-10-23T16:30:30.577Z,6.80
2022-10-23T16:32:58.923Z,6.80
2022-10-23T16:35:31.207Z,6.80
2022-10-23T16:38:02.190Z,6.80
2022-10-23T16:40:36.720Z,6.90
2022-10-23T16:43:06.378Z,6.90
2022-10-23T16:45:42.501Z,6.90
2022-10-23T16:48:14.292Z,6.90
2022-10-23T16:50:43.309Z,6.92
2022-10-23T16:53:15.423Z,6.90
2022-10-23T16:55:53.797Z,6.90
2022-10-23T16:58:24.757Z,6.90
2022-10-23T17:01:06.297Z,6.90
2022-10-23T17:03:40.436Z,6.92
2022-10-23T17:06:15.532Z,7.00
2022-10-23T17:08:43.593Z,7.00
2022-10-23T17:11:45.601Z,7.10
2022-10-23T17:14:18.179Z,7.10
2022-10-23T17:16:52.031Z,7.00
2022-10-23T17:19:43.685Z,7.00
2022-10-23T17:22:17.819Z,6.90
2022-10-23T17:24:51.428Z,6.90
2022-10-23T17:27:22.319Z,6.90
2022-10-23T17:29:50.195Z,6.90
2022-10-23T17:32:23.403Z,6.90
2022-10-23T17:34:52.843Z,6.90
2022-10-23T17:37:22.648Z,6.90
2022-10-23T17:39:51.660Z,6.90
2022-10-23T17:42:26.200Z,6.90
2022-10-23T17:44:55.512Z,6.82
2022-10-23T17:47:25.476Z,6.90
2022-10-23T17:49:53.393Z,6.90
2022-10-23T17:52:30.551Z,7.00
2022-10-23T17:54:59.049Z,7.00
2022-10-23T17:57:32.394Z,7.00
2022-10-23T18:00:05.938Z,7.00
2022-10-23T18:02:34.004Z,7.00
2022-10-23T18:05:07.673Z,6.90
2022-10-23T18:07:35.553Z,6.90
2022-10-23T18:10:07.374Z,7.00
2022-10-23T18:12:43.248Z,7.04
2022-10-23T18:15:11.891Z,7.10
2022-10-23T18:17:41.539Z,7.16
2022-10-23T18:20:12.133Z,7.10
2022-10-23T18:22:43.645Z,7.10
2022-10-23T18:25:12.070Z,7.02
2022-10-23T18:27:42.367Z,7.00
2022-10-23T18:30:14.656Z,6.90
2022-10-23T18:32:44.945Z,6.90
2022-10-23T18:35:13.142Z,6.90
2022-10-23T18:37:42.356Z,6.90
2022-10-23T18:40:15.056Z,6.90
2022-10-23T18:42:45.097Z,6.90
2022-10-23T18:45:23.273Z,6.90
2022-10-23T18:47:52.138Z,6.80
2022-10-23T18:50:24.259Z,6.80
2022-10-23T18:52:58.529Z,6.80
2022-10-23T18:55:27.888Z,6.80
2022-10-23T18:58:03.725Z,6.80
2022-10-23T19:00:31.370Z,6.80
2022-10-23T19:03:02.703Z,6.80
2022-10-23T19:05:33.661Z,6.90
2022-10-23T19:08:04.498Z,6.96
2022-10-23T19:10:35.815Z,7.00
2022-10-23T19:13:05.912Z,6.94
2022-10-23T19:15:39.042Z,6.94
2022-10-23T19:18:08.683Z,7.00
2022-10-23T19:20:38.507Z,7.00
2022-10-23T19:23:10.680Z,7.08
2022-10-23T19:25:45.568Z,7.10
2022-10-23T19:28:14.454Z,7.10
2022-10-23T19:30:43.660Z,7.10
2022-10-23T19:33:18.258Z,7.00
2022-10-23T19:35:49.059Z,7.08
2022-10-23T19:38:20.038Z,7.10
2022-10-23T19:40:48.261Z,7.14
2022-10-23T19:43:17.302Z,7.26
2022-10-23T19:45:46.272Z,7.30
2022-10-23T19:48:16.306Z,7.30
2022-10-23T19:50:49.807Z,7.30
2022-10-23T19:53:19.860Z,7.30
2022-10-23T19:55:47.527Z,7.30
2022-10-23T19:58:17.155Z,7.30
2022-10-23T20:00:47.144Z,7.30
2022-10-23T20:03:15.758Z,7.30
2022-10-23T20:05:48.531Z,7.40
2022-10-23T20:08:16.279Z,7.40
2022-10-23T20:10:46.921Z,7.30
2022-10-23T20:13:20.434Z,7.30
2022-10-23T20:15:48.847Z,7.30
2022-10-23T20:18:17.585Z,7.30
2022-10-23T20:20:46.774Z,7.30
2022-10-23T20:23:15.850Z,7.30
2022-10-23T20:25:44.000Z,7.30
2022-10-23T20:28:14.448Z,7.32
2022-10-23T20:30:48.423Z,7.40
2022-10-23T20:33:16.426Z,7.38
2022-10-23T20:35:45.673Z,7.36
2022-10-23T20:38:13.378Z,7.40
2022-10-23T20:40:41.865Z,7.40
2022-10-23T20:43:17.033Z,7.30
2022-10-23T20:45:47.608Z,7.30
2022-10-23T20:48:15.872Z,7.30
2022-10-23T20:50:44.150Z,7.30
2022-10-23T20:53:12.158Z,7.30
2022-10-23T20:55:43.818Z,7.30
2022-10-23T20:58:11.907Z,7.30
2022-10-23T21:00:39.903Z,7.30
2022-10-23T21:03:11.251Z,7.30
2022-10-23T21:05:39.577Z,7.40
2022-10-23T21:08:08.276Z,7.40
2022-10-23T21:10:36.551Z,7.40
2022-10-23T21:13:07.108Z,7.40
2022-10-23T21:15:34.816Z,7.40
2022-10-23T21:18:14.627Z,7.34
2022-10-23T21:20:55.060Z,7.30
2022-10-23T21:23:25.181Z,7.20
2022-10-23T21:25:54.052Z,7.10
2022-10-23T21:28:22.337Z,7.10
2022-10-23T21:30:50.215Z,7.10
2022-10-23T21:33:19.161Z,7.18
2022-10-23T21:35:57.826Z,7.10
2022-10-23T21:38:27.333Z,7.10
2022-10-23T21:41:09.875Z,7.00
2022-10-23T21:43:38.283Z,7.00
2022-10-23T21:46:17.843Z,7.00
2022-10-23T21:48:48.423Z,7.10
2022-10-23T21:51:32.827Z,7.10
2022-10-23T21:54:01.323Z,7.10
2022-10-23T21:56:45.177Z,7.10
2022-10-23T21:59:24.264Z,7.14
2022-10-23T22:01:53.240Z,7.20
2022-10-23T22:04:24.261Z,7.20
2022-10-23T22:06:52.780Z,7.10
2022-10-23T22:09:23.519Z,7.00
2022-10-23T22:11:53.265Z,6.90
2022-10-23T22:14:23.675Z,6.90
2022-10-23T22:16:52.315Z,6.80
2022-10-23T22:19:24.997Z,6.80
2022-10-23T22:21:54.976Z,6.76
2022-10-23T22:24:24.671Z,6.80
2022-10-23T22:26:56.809Z,6.90
2022-10-23T22:29:29.711Z,6.90
2022-10-23T22:31:58.849Z,7.00
2022-10-23T22:37:23.494Z,6.98
2022-10-23T22:39:54.831Z,6.90
2022-10-23T22:42:25.142Z,6.90
2022-10-23T22:44:52.812Z,6.90
2022-10-23T22:47:22.080Z,6.90
2022-10-23T22:49:51.554Z,6.98
2022-10-23T22:52:23.245Z,6.90
2022-10-23T22:54:50.896Z,6.90
2022-10-23T22:57:22.710Z,6.80
2022-10-23T22:59:50.975Z,6.80
2022-10-23T23:02:21.375Z,6.80
2022-10-23T23:04:49.849Z,6.80
2022-10-23T23:07:21.558Z,6.82
2022-10-23T23:09:49.653Z,6.90
2022-10-23T23:12:20.674Z,6.90
2022-10-23T23:14:50.405Z,6.90
2022-10-23T23:17:20.041Z,6.90
2022-10-23T23:19:48.365Z,6.90
2022-10-23T23:22:18.667Z,6.90
2022-10-23T23:24:47.565Z,7.00
2022-10-23T23:27:17.140Z,7.00
2022-10-23T23:29:48.680Z,7.00
2022-10-23T23:32:16.761Z,7.00
2022-10-23T23:34:47.172Z,6.98
2022-10-23T23:37:15.517Z,6.92
2022-10-23T23:39:44.728Z,6.90
2022-10-23T23:42:19.846Z,6.98
2022-10-23T23:44:55.987Z,7.00
2022-10-23T23:47:31.385Z,7.00
2022-10-23T23:50:03.576Z,7.10
2022-10-23T23:52:35.179Z,7.18
2022-10-23T23:55:03.599Z,7.20
2022-10-23T23:57:33.950Z,7.10
